createdAt,value
2018-01-28T00:00:05.484Z,27.3
2018-01-28T00:01:05.467Z,27.3
2018-01-28T00:02:05.540Z,27.3
2018-01-28T00:03:06.857Z,27.3
2018-01-28T00:04:05.671Z,27.3
2018-01-28T00:05:06.788Z,27.3
2018-01-28T00:06:05.982Z,27.3
2018-01-28T00:07:07.147Z,27.3
2018-01-28T00:08:06.029Z,27.3
2018-01-28T00:09:07.024Z,27.3
2018-01-28T00:10:05.956Z,27.3
2018-01-28T00:11:05.977Z,27.3
2018-01-28T00:12:06.041Z,27.3
2018-01-28T00:13:07.321Z,27.3
2018-01-28T00:14:06.063Z,27.3
2018-01-28T00:15:06.250Z,27.3
2018-01-28T00:16:06.370Z,27.3
2018-01-28T00:17:07.453Z,27.3
2018-01-28T00:18:07.306Z,27.3
2018-01-28T00:19:06.235Z,27.3
2018-01-28T00:20:06.306Z,27.3
2018-01-28T00:21:06.550Z,27.3
2018-01-28T00:22:07.684Z,27.3
2018-01-28T00:23:06.672Z,27.3
2018-01-28T00:24:07.775Z,27.3
2018-01-28T00:25:06.524Z,27.3
2018-01-28T00:26:07.818Z,27.3
2018-01-28T00:27:06.862Z,27.3
2018-01-28T00:28:06.633Z,27.3
2018-01-28T00:29:07.740Z,27.3
2018-01-28T00:30:06.787Z,27.3
2018-01-28T00:31:08.106Z,27.3
2018-01-28T00:32:07.128Z,27.3
2018-01-28T00:33:08.256Z,27.3
2018-01-28T00:34:08.318Z,27.3
2018-01-28T00:35:08.151Z,27.3
2018-01-28T00:36:07.140Z,27.3
2018-01-28T00:37:08.475Z,27.3
2018-01-28T00:38:07.194Z,27.3
2018-01-28T00:39:07.299Z,27.3
2018-01-28T00:40:07.520Z,27.3
2018-01-28T00:41:08.636Z,27.3
2018-01-28T00:42:08.546Z,27.3
2018-01-28T00:43:07.537Z,27.3
2018-01-28T00:44:07.672Z,27.3
2018-01-28T00:45:08.794Z,27.3
2018-01-28T00:46:08.844Z,27.3
2018-01-28T00:47:08.865Z,27.3
2018-01-28T00:48:07.858Z,27.3
2018-01-28T00:49:07.695Z,27.3
2018-01-28T00:50:07.883Z,27.3
2018-01-28T00:51:07.812Z,27.3
2018-01-28T00:52:09.098Z,27.4
2018-01-28T00:53:08.932Z,27.3
2018-01-28T00:54:07.842Z,27.3
2018-01-28T00:55:07.870Z,27.3
2018-01-28T00:56:09.017Z,27.4
2018-01-28T00:57:08.028Z,27.4
2018-01-28T00:58:08.085Z,27.3
2018-01-28T00:59:08.282Z,27.4
2018-01-28T01:00:08.349Z,27.4
2018-01-28T01:01:09.198Z,27.3
2018-01-28T01:02:09.511Z,27.3
2018-01-28T01:03:08.475Z,27.3
2018-01-28T01:04:08.606Z,27.4
2018-01-28T01:05:09.742Z,27.3
2018-01-28T01:06:09.607Z,27.4
2018-01-28T01:07:08.691Z,27.4
2018-01-28T01:08:08.544Z,27.4
2018-01-28T01:09:09.671Z,27.4
2018-01-28T01:10:08.613Z,27.3
2018-01-28T01:11:08.685Z,27.4
2018-01-28T01:12:10.063Z,27.4
2018-01-28T01:13:08.804Z,27.3
2018-01-28T01:14:10.125Z,27.4
2018-01-28T01:15:10.152Z,27.4
2018-01-28T01:16:08.926Z,27.4
2018-01-28T01:17:10.212Z,27.4
2018-01-28T01:18:10.002Z,27.4
2018-01-28T01:19:09.051Z,27.3
2018-01-28T01:20:09.254Z,27.4
2018-01-28T01:21:09.126Z,27.3
2018-01-28T01:22:10.488Z,27.4
2018-01-28T01:23:09.423Z,27.3
2018-01-28T01:24:09.254Z,27.4
2018-01-28T01:25:09.576Z,27.4
2018-01-28T01:26:09.406Z,27.4
2018-01-28T01:27:09.655Z,27.4
2018-01-28T01:28:10.662Z,27.4
2018-01-28T01:29:09.801Z,27.4
2018-01-28T01:30:09.656Z,27.4
2018-01-28T01:31:10.982Z,27.4
2018-01-28T01:32:09.829Z,27.4
2018-01-28T01:33:09.993Z,27.4
2018-01-28T01:34:11.174Z,27.4
2018-01-28T01:35:10.996Z,27.4
2018-01-28T01:36:11.178Z,27.4
2018-01-28T01:37:10.134Z,27.4
2018-01-28T01:38:11.039Z,27.4
2018-01-28T01:39:10.227Z,27.4
2018-01-28T01:40:10.100Z,27.4
2018-01-28T01:41:10.170Z,27.4
2018-01-28T01:42:10.186Z,27.4
2018-01-28T01:43:11.614Z,27.4
2018-01-28T01:44:10.350Z,27.4
2018-01-28T01:45:10.647Z,27.4
2018-01-28T01:46:10.491Z,27.4
2018-01-28T01:47:10.505Z,27.4
2018-01-28T01:48:10.478Z,27.4
2018-01-28T01:49:11.851Z,27.4
2018-01-28T01:50:10.833Z,27.4
2018-01-28T01:51:10.635Z,27.4
2018-01-28T01:52:10.710Z,27.4
2018-01-28T01:53:10.770Z,27.4
2018-01-28T01:54:10.835Z,27.4
2018-01-28T01:55:11.984Z,27.4
2018-01-28T01:56:10.954Z,27.4
2018-01-28T01:57:11.256Z,27.4
2018-01-28T01:58:12.151Z,27.4
2018-01-28T01:59:12.335Z,27.4
2018-01-28T02:00:11.157Z,27.4
2018-01-28T02:01:12.470Z,27.4
2018-01-28T02:02:11.410Z,27.4
2018-01-28T02:03:11.440Z,27.4
2018-01-28T02:04:11.466Z,27.4
2018-01-28T02:05:11.331Z,27.4
2018-01-28T02:06:12.684Z,27.4
2018-01-28T02:07:11.680Z,27.4
2018-01-28T02:08:12.537Z,27.4
2018-01-28T02:09:12.743Z,27.4
2018-01-28T02:10:11.469Z,27.4
2018-01-28T02:11:11.584Z,27.4
2018-01-28T02:12:12.913Z,27.4
2018-01-28T02:13:13.006Z,27.4
2018-01-28T02:14:11.949Z,27.4
2018-01-28T02:15:11.995Z,27.4
2018-01-28T02:16:13.066Z,27.4
2018-01-28T02:17:11.989Z,27.4
2018-01-28T02:18:12.955Z,27.4
2018-01-28T02:19:13.051Z,27.4
2018-01-28T02:20:13.085Z,27.4
2018-01-28T02:21:11.988Z,27.4
2018-01-28T02:22:12.223Z,27.4
2018-01-28T02:23:13.174Z,27.4
2018-01-28T02:24:12.126Z,27.4
2018-01-28T02:25:12.431Z,27.4
2018-01-28T02:26:12.552Z,27.4
2018-01-28T02:27:12.322Z,27.4
2018-01-28T02:28:12.352Z,27.4
2018-01-28T02:29:12.352Z,27.4
2018-01-28T02:30:12.465Z,27.4
2018-01-28T02:31:12.519Z,27.4
2018-01-28T02:32:12.790Z,27.4
2018-01-28T02:33:12.835Z,27.4
2018-01-28T02:34:12.690Z,27.4
2018-01-28T02:35:14.074Z,27.4
2018-01-28T02:36:13.003Z,27.4
2018-01-28T02:37:12.868Z,27.4
2018-01-28T02:38:13.109Z,27.4
2018-01-28T02:39:13.175Z,27.4
2018-01-28T02:40:13.062Z,27.4
2018-01-28T02:41:13.397Z,27.4
2018-01-28T02:42:14.284Z,27.4
2018-01-28T02:43:14.572Z,27.4
2018-01-28T02:44:13.509Z,27.4
2018-01-28T02:45:14.611Z,27.4
2018-01-28T02:46:13.339Z,27.4
2018-01-28T02:47:13.438Z,27.4
2018-01-28T02:48:14.778Z,27.4
2018-01-28T02:49:13.552Z,27.4
2018-01-28T02:50:13.661Z,27.4
2018-01-28T02:51:14.622Z,27.4
2018-01-28T02:52:13.697Z,27.4
2018-01-28T02:53:13.830Z,27.4
2018-01-28T02:54:13.943Z,27.4
2018-01-28T02:55:13.828Z,27.4
2018-01-28T02:56:15.147Z,27.4
2018-01-28T02:57:14.942Z,27.4
2018-01-28T02:58:14.195Z,27.4
2018-01-28T02:59:14.239Z,27.4
2018-01-28T03:00:15.378Z,27.5
2018-01-28T03:01:14.370Z,27.5
2018-01-28T03:02:14.465Z,27.4
2018-01-28T03:03:15.419Z,27.4
2018-01-28T03:04:15.570Z,27.5
2018-01-28T03:05:14.674Z,27.4
2018-01-28T03:06:14.545Z,27.5
2018-01-28T03:07:14.813Z,27.4
2018-01-28T03:08:14.832Z,27.5
2018-01-28T03:09:15.727Z,27.4
2018-01-28T03:10:15.795Z,27.5
2018-01-28T03:11:16.095Z,27.5
2018-01-28T03:12:16.149Z,27.5
2018-01-28T03:13:14.901Z,27.5
2018-01-28T03:14:15.103Z,27.4
2018-01-28T03:15:14.980Z,27.4
2018-01-28T03:16:15.045Z,27.4
2018-01-28T03:17:15.109Z,27.4
2018-01-28T03:18:15.183Z,27.4
2018-01-28T03:19:15.245Z,27.4
2018-01-28T03:20:15.313Z,27.4
2018-01-28T03:21:15.628Z,27.5
2018-01-28T03:22:16.533Z,27.5
2018-01-28T03:23:15.755Z,27.5
2018-01-28T03:24:16.929Z,27.5
2018-01-28T03:25:16.963Z,27.4
2018-01-28T03:26:15.869Z,27.5
2018-01-28T03:27:17.005Z,27.4
2018-01-28T03:28:16.845Z,27.4
2018-01-28T03:29:16.084Z,27.4
2018-01-28T03:30:15.956Z,27.4
2018-01-28T03:31:16.244Z,27.4
2018-01-28T03:32:16.082Z,27.4
2018-01-28T03:33:16.164Z,27.4
2018-01-28T03:34:16.203Z,27.4
2018-01-28T03:35:17.511Z,27.4
2018-01-28T03:36:16.244Z,27.4
2018-01-28T03:37:16.319Z,27.4
2018-01-28T03:38:16.336Z,27.4
2018-01-28T03:39:16.411Z,27.4
2018-01-28T03:40:16.468Z,27.4
2018-01-28T03:41:16.476Z,27.4
2018-01-28T03:42:16.742Z,27.4
2018-01-28T03:43:16.633Z,27.4
2018-01-28T03:44:16.630Z,27.4
2018-01-28T03:45:16.709Z,27.4
2018-01-28T03:46:16.796Z,27.5
2018-01-28T03:47:16.796Z,27.5
2018-01-28T03:48:17.991Z,27.5
2018-01-28T03:49:16.938Z,27.4
2018-01-28T03:50:18.221Z,27.4
2018-01-28T03:51:18.322Z,27.5
2018-01-28T03:52:18.348Z,27.5
2018-01-28T03:53:17.317Z,27.5
2018-01-28T03:54:18.157Z,27.5
2018-01-28T03:55:17.160Z,27.4
2018-01-28T03:56:18.450Z,27.4
2018-01-28T03:57:17.222Z,27.4
2018-01-28T03:58:17.321Z,27.4
2018-01-28T03:59:18.601Z,27.4
2018-01-28T04:00:17.393Z,27.4
2018-01-28T04:01:18.992Z,27.4
2018-01-28T04:02:18.794Z,27.4
2018-01-28T04:03:18.833Z,27.4
2018-01-28T04:04:18.901Z,27.4
2018-01-28T04:05:18.727Z,27.4
2018-01-28T04:06:17.680Z,27.4
2018-01-28T04:07:17.759Z,27.4
2018-01-28T04:08:17.802Z,27.5
2018-01-28T04:09:19.155Z,27.5
2018-01-28T04:10:17.974Z,27.5
2018-01-28T04:11:18.022Z,27.5
2018-01-28T04:12:19.144Z,27.5
2018-01-28T04:13:19.358Z,27.5
2018-01-28T04:14:18.384Z,27.4
2018-01-28T04:15:18.230Z,27.4
2018-01-28T04:16:18.300Z,27.5
2018-01-28T04:17:19.418Z,27.5
2018-01-28T04:18:18.631Z,27.4
2018-01-28T04:19:18.500Z,27.4
2018-01-28T04:20:18.570Z,27.5
2018-01-28T04:21:19.704Z,27.4
2018-01-28T04:22:18.728Z,27.4
2018-01-28T04:23:20.075Z,27.5
2018-01-28T04:24:18.898Z,27.4
2018-01-28T04:25:19.165Z,27.5
2018-01-28T04:26:19.266Z,27.5
2018-01-28T04:27:19.127Z,27.5
2018-01-28T04:28:20.384Z,27.5
2018-01-28T04:29:19.318Z,27.5
2018-01-28T04:30:19.113Z,27.5
2018-01-28T04:31:19.424Z,27.5
2018-01-28T04:32:20.533Z,27.5
2018-01-28T04:33:19.302Z,27.5
2018-01-28T04:34:19.341Z,27.5
2018-01-28T04:35:19.329Z,27.5
2018-01-28T04:36:19.663Z,27.5
2018-01-28T04:37:19.468Z,27.4
2018-01-28T04:38:19.734Z,27.4
2018-01-28T04:39:19.542Z,27.4
2018-01-28T04:40:19.651Z,27.4
2018-01-28T04:41:19.666Z,27.5
2018-01-28T04:42:19.931Z,27.5
2018-01-28T04:43:20.018Z,27.5
2018-01-28T04:44:21.125Z,27.5
2018-01-28T04:45:20.978Z,27.5
2018-01-28T04:46:19.900Z,27.5
2018-01-28T04:47:19.974Z,27.5
2018-01-28T04:48:21.313Z,27.5
2018-01-28T04:49:20.321Z,27.5
2018-01-28T04:50:21.389Z,27.5
2018-01-28T04:51:21.433Z,27.5
2018-01-28T04:52:20.448Z,27.5
2018-01-28T04:53:21.590Z,27.5
2018-01-28T04:54:21.641Z,27.5
2018-01-28T04:55:20.624Z,27.5
2018-01-28T04:56:21.694Z,27.5
2018-01-28T04:57:20.419Z,27.5
2018-01-28T04:58:20.510Z,27.5
2018-01-28T04:59:20.527Z,27.4
2018-01-28T05:00:20.571Z,27.5
2018-01-28T05:01:21.937Z,27.4
2018-01-28T05:02:21.987Z,27.5
2018-01-28T05:03:20.707Z,27.5
2018-01-28T05:04:20.993Z,27.5
2018-01-28T05:05:21.084Z,27.5
2018-01-28T05:06:22.071Z,27.5
2018-01-28T05:07:21.023Z,27.5
2018-01-28T05:08:21.055Z,27.4
2018-01-28T05:09:21.080Z,27.4
2018-01-28T05:10:22.205Z,27.4
2018-01-28T05:11:22.514Z,27.4
2018-01-28T05:12:22.562Z,27.4
2018-01-28T05:13:21.300Z,27.5
2018-01-28T05:14:21.486Z,27.5
2018-01-28T05:15:21.564Z,27.5
2018-01-28T05:16:21.632Z,27.5
2018-01-28T05:17:22.763Z,27.4
2018-01-28T05:18:22.850Z,27.4
2018-01-28T05:19:22.881Z,27.5
2018-01-28T05:20:21.629Z,27.4
2018-01-28T05:21:21.718Z,27.4
2018-01-28T05:22:23.019Z,27.4
2018-01-28T05:23:21.788Z,27.4
2018-01-28T05:24:23.131Z,27.5
2018-01-28T05:25:21.941Z,27.5
2018-01-28T05:26:21.983Z,27.5
2018-01-28T05:27:22.052Z,27.5
2018-01-28T05:28:22.261Z,27.5
2018-01-28T05:29:22.159Z,27.5
2018-01-28T05:30:23.549Z,27.5
2018-01-28T05:31:23.588Z,27.5
2018-01-28T05:32:22.539Z,27.5
2018-01-28T05:33:22.553Z,27.5
2018-01-28T05:34:22.581Z,27.5
2018-01-28T05:35:22.601Z,27.5
2018-01-28T05:36:22.513Z,27.5
2018-01-28T05:37:22.735Z,27.5
2018-01-28T05:38:22.515Z,27.5
2018-01-28T05:39:23.915Z,27.5
2018-01-28T05:40:23.997Z,27.5
2018-01-28T05:41:24.010Z,27.5
2018-01-28T05:42:22.833Z,27.5
2018-01-28T05:43:23.926Z,27.5
2018-01-28T05:44:23.063Z,27.5
2018-01-28T05:45:24.265Z,27.5
2018-01-28T05:46:24.086Z,27.5
2018-01-28T05:47:24.122Z,27.5
2018-01-28T05:48:23.533Z,27.5
2018-01-28T05:49:23.289Z,27.5
2018-01-28T05:50:23.162Z,27.5
2018-01-28T05:51:24.468Z,27.5
2018-01-28T05:52:23.381Z,27.5
2018-01-28T05:53:23.199Z,27.5
2018-01-28T05:54:24.265Z,27.5
2018-01-28T05:55:23.236Z,27.5
2018-01-28T05:56:24.554Z,27.5
2018-01-28T05:57:23.312Z,27.5
2018-01-28T05:58:24.451Z,27.5
2018-01-28T05:59:23.627Z,27.5
2018-01-28T06:00:23.663Z,27.5
2018-01-28T06:01:24.825Z,27.5
2018-01-28T06:02:24.694Z,27.5
2018-01-28T06:03:23.718Z,27.5
2018-01-28T06:04:23.732Z,27.5
2018-01-28T06:05:25.065Z,27.5
2018-01-28T06:06:24.070Z,27.5
2018-01-28T06:07:23.869Z,27.5
2018-01-28T06:08:25.188Z,27.5
2018-01-28T06:09:25.184Z,27.5
2018-01-28T06:10:23.986Z,27.5
2018-01-28T06:11:25.149Z,27.5
2018-01-28T06:12:25.227Z,27.5
2018-01-28T06:13:25.497Z,27.5
2018-01-28T06:14:24.294Z,27.5
2018-01-28T06:15:24.387Z,27.5
2018-01-28T06:16:24.602Z,27.5
2018-01-28T06:17:24.657Z,27.5
2018-01-28T06:18:25.856Z,27.5
2018-01-28T06:19:25.873Z,27.5
2018-01-28T06:20:25.747Z,27.5
2018-01-28T06:21:25.764Z,27.5
2018-01-28T06:22:25.985Z,27.5
2018-01-28T06:23:24.799Z,27.5
2018-01-28T06:24:25.006Z,27.5
2018-01-28T06:25:25.058Z,27.5
2018-01-28T06:26:25.100Z,27.5
2018-01-28T06:27:25.150Z,27.5
2018-01-28T06:28:25.215Z,27.5
2018-01-28T06:29:26.384Z,27.5
2018-01-28T06:30:26.459Z,27.5
2018-01-28T06:31:25.432Z,27.5
2018-01-28T06:32:25.289Z,27.5
2018-01-28T06:33:25.329Z,27.5
2018-01-28T06:34:26.703Z,27.5
2018-01-28T06:35:26.759Z,27.5
2018-01-28T06:36:25.583Z,27.5
2018-01-28T06:37:25.715Z,27.5
2018-01-28T06:38:25.555Z,27.5
2018-01-28T06:39:26.751Z,27.5
2018-01-28T06:40:25.989Z,27.5
2018-01-28T06:41:25.880Z,27.5
2018-01-28T06:42:27.171Z,27.5
2018-01-28T06:43:26.176Z,27.5
2018-01-28T06:44:26.227Z,27.5
2018-01-28T06:45:26.092Z,27.5
2018-01-28T06:46:26.192Z,27.5
2018-01-28T06:47:26.463Z,27.5
2018-01-28T06:48:27.578Z,27.5
2018-01-28T06:49:26.445Z,27.5
2018-01-28T06:50:26.449Z,27.5
2018-01-28T06:51:26.528Z,27.5
2018-01-28T06:52:27.618Z,27.5
2018-01-28T06:53:26.831Z,27.5
2018-01-28T06:54:26.913Z,27.5
2018-01-28T06:55:26.967Z,27.5
2018-01-28T06:56:27.936Z,27.5
2018-01-28T06:57:27.094Z,27.5
2018-01-28T06:58:26.950Z,27.5
2018-01-28T06:59:26.982Z,27.5
2018-01-28T07:00:27.070Z,27.5
2018-01-28T07:01:27.070Z,27.5
2018-01-28T07:02:27.130Z,27.5
2018-01-28T07:03:27.482Z,27.5
2018-01-28T07:04:28.328Z,27.5
2018-01-28T07:05:27.494Z,27.5
2018-01-28T07:06:27.472Z,27.5
2018-01-28T07:07:27.567Z,27.5
2018-01-28T07:08:27.356Z,27.5
2018-01-28T07:09:28.749Z,27.5
2018-01-28T07:10:27.495Z,27.5
2018-01-28T07:11:28.816Z,27.5
2018-01-28T07:12:27.599Z,27.5
2018-01-28T07:13:27.596Z,27.5
2018-01-28T07:14:27.630Z,27.5
2018-01-28T07:15:27.910Z,27.5
2018-01-28T07:16:27.996Z,27.5
2018-01-28T07:17:28.067Z,27.5
2018-01-28T07:18:28.976Z,27.5
2018-01-28T07:19:27.948Z,27.5
2018-01-28T07:20:28.027Z,27.5
2018-01-28T07:21:28.253Z,27.5
2018-01-28T07:22:29.394Z,27.5
2018-01-28T07:23:28.398Z,27.5
2018-01-28T07:24:29.534Z,27.5
2018-01-28T07:25:28.453Z,27.5
2018-01-28T07:26:29.625Z,27.5
2018-01-28T07:27:28.360Z,27.5
2018-01-28T07:28:28.381Z,27.5
2018-01-28T07:29:28.483Z,27.5
2018-01-28T07:30:29.816Z,27.5
2018-01-28T07:31:28.573Z,27.5
2018-01-28T07:32:29.640Z,27.5
2018-01-28T07:33:29.946Z,27.5
2018-01-28T07:34:30.027Z,27.5
2018-01-28T07:35:28.993Z,27.5
2018-01-28T07:36:29.949Z,27.5
2018-01-28T07:37:29.981Z,27.5
2018-01-28T07:38:30.258Z,27.5
2018-01-28T07:39:30.258Z,27.5
2018-01-28T07:40:29.174Z,27.5
2018-01-28T07:41:29.019Z,27.5
2018-01-28T07:42:29.104Z,27.5
2018-01-28T07:43:29.189Z,27.5
2018-01-28T07:44:29.403Z,27.5
2018-01-28T07:45:30.606Z,27.5
2018-01-28T07:46:29.351Z,27.5
2018-01-28T07:47:29.400Z,27.5
2018-01-28T07:48:30.656Z,27.5
2018-01-28T07:49:29.387Z,27.5
2018-01-28T07:50:30.795Z,27.5
2018-01-28T07:51:29.764Z,27.5
2018-01-28T07:52:30.720Z,27.5
2018-01-28T07:53:30.941Z,27.5
2018-01-28T07:54:29.737Z,27.5
2018-01-28T07:55:29.815Z,27.5
2018-01-28T07:56:31.188Z,27.5
2018-01-28T07:57:30.999Z,27.5
2018-01-28T07:58:29.952Z,27.5
2018-01-28T07:59:30.016Z,27.5
2018-01-28T08:00:30.098Z,27.5
2018-01-28T08:01:30.115Z,27.5
2018-01-28T08:02:30.223Z,27.5
2018-01-28T08:03:31.553Z,27.5
2018-01-28T08:04:31.409Z,27.5
2018-01-28T08:05:30.560Z,27.5
2018-01-28T08:06:31.709Z,27.5
2018-01-28T08:07:30.411Z,27.5
2018-01-28T08:08:31.759Z,27.5
2018-01-28T08:09:30.445Z,27.5
2018-01-28T08:10:30.469Z,27.5
2018-01-28T08:11:30.539Z,27.5
2018-01-28T08:12:30.630Z,27.5
2018-01-28T08:13:30.586Z,27.5
2018-01-28T08:14:30.863Z,27.5
2018-01-28T08:15:30.682Z,27.5
2018-01-28T08:16:30.686Z,27.5
2018-01-28T08:17:30.720Z,27.5
2018-01-28T08:18:30.834Z,27.5
2018-01-28T08:19:31.054Z,27.5
2018-01-28T08:20:32.188Z,27.5
2018-01-28T08:21:32.004Z,27.5
2018-01-28T08:22:32.281Z,27.5
2018-01-28T08:23:31.000Z,27.5
2018-01-28T08:24:31.320Z,27.5
2018-01-28T08:25:32.211Z,27.5
2018-01-28T08:26:32.369Z,27.5
2018-01-28T08:27:31.504Z,27.5
2018-01-28T08:28:31.322Z,27.5
2018-01-28T08:29:31.531Z,27.5
2018-01-28T08:30:32.680Z,27.5
2018-01-28T08:31:32.752Z,27.4
2018-01-28T08:32:31.453Z,27.4
2018-01-28T08:33:31.451Z,27.4
2018-01-28T08:34:32.835Z,27.5
2018-01-28T08:35:32.678Z,27.5
2018-01-28T08:36:31.903Z,27.5
2018-01-28T08:37:33.032Z,27.5
2018-01-28T08:38:33.059Z,27.5
2018-01-28T08:39:31.788Z,27.5
2018-01-28T08:40:32.949Z,27.5
2018-01-28T08:41:33.162Z,27.5
2018-01-28T08:42:32.099Z,27.5
2018-01-28T08:43:32.988Z,27.5
2018-01-28T08:44:32.120Z,27.5
2018-01-28T08:45:33.306Z,27.5
2018-01-28T08:46:33.354Z,27.5
2018-01-28T08:47:32.095Z,27.5
2018-01-28T08:48:33.248Z,27.5
2018-01-28T08:49:32.410Z,27.5
2018-01-28T08:50:33.343Z,27.5
2018-01-28T08:51:33.597Z,27.4
2018-01-28T08:52:32.334Z,27.5
2018-01-28T08:53:32.626Z,27.4
2018-01-28T08:54:32.448Z,27.4
2018-01-28T08:55:32.512Z,27.4
2018-01-28T08:56:32.726Z,27.4
2018-01-28T08:57:33.836Z,27.4
2018-01-28T08:58:32.582Z,27.4
2018-01-28T08:59:32.682Z,27.4
2018-01-28T09:00:32.879Z,27.4
2018-01-28T09:01:32.988Z,27.4
2018-01-28T09:02:32.851Z,27.4
2018-01-28T09:03:34.178Z,27.4
2018-01-28T09:04:33.144Z,27.4
2018-01-28T09:05:34.229Z,27.4
2018-01-28T09:06:33.213Z,27.4
2018-01-28T09:07:33.233Z,27.4
2018-01-28T09:08:33.288Z,27.4
2018-01-28T09:09:33.286Z,27.4
2018-01-28T09:10:33.129Z,27.4
2018-01-28T09:11:34.435Z,27.4
2018-01-28T09:12:34.261Z,27.4
2018-01-28T09:13:33.457Z,27.4
2018-01-28T09:14:34.440Z,27.4
2018-01-28T09:15:34.468Z,27.4
2018-01-28T09:16:34.432Z,27.4
2018-01-28T09:17:33.482Z,27.4
2018-01-28T09:18:33.578Z,27.4
2018-01-28T09:19:33.558Z,27.4
2018-01-28T09:20:34.911Z,27.4
2018-01-28T09:21:33.698Z,27.4
2018-01-28T09:22:34.787Z,27.4
2018-01-28T09:23:33.884Z,27.4
2018-01-28T09:24:33.848Z,27.4
2018-01-28T09:25:33.817Z,27.4
2018-01-28T09:26:35.238Z,27.4
2018-01-28T09:27:35.194Z,27.4
2018-01-28T09:28:34.133Z,27.4
2018-01-28T09:29:34.178Z,27.4
2018-01-28T09:30:35.278Z,27.4
2018-01-28T09:31:34.036Z,27.4
2018-01-28T09:32:35.120Z,27.4
2018-01-28T09:33:35.330Z,27.3
2018-01-28T09:34:34.118Z,27.4
2018-01-28T09:35:34.140Z,27.4
2018-01-28T09:36:34.380Z,27.4
2018-01-28T09:37:34.409Z,27.4
2018-01-28T09:38:34.282Z,27.4
2018-01-28T09:39:34.534Z,27.4
2018-01-28T09:40:34.561Z,27.4
2018-01-28T09:41:34.606Z,27.4
2018-01-28T09:42:35.781Z,27.4
2018-01-28T09:43:34.730Z,27.3
2018-01-28T09:44:35.648Z,27.3
2018-01-28T09:45:35.906Z,27.3
2018-01-28T09:46:35.942Z,27.3
2018-01-28T09:47:35.290Z,27.3
2018-01-28T09:48:36.018Z,27.3
2018-01-28T09:49:35.054Z,27.3
2018-01-28T09:50:35.059Z,27.3
2018-01-28T09:51:34.950Z,27.4
2018-01-28T09:52:35.191Z,27.3
2018-01-28T09:53:35.076Z,27.3
2018-01-28T09:54:35.178Z,27.3
2018-01-28T09:55:35.201Z,27.3
2018-01-28T09:56:36.484Z,27.3
2018-01-28T09:57:35.490Z,27.3
2018-01-28T09:58:35.356Z,27.3
2018-01-28T09:59:35.534Z,27.4
2018-01-28T10:00:35.431Z,27.4
2018-01-28T10:01:35.669Z,27.4
2018-01-28T10:02:35.726Z,27.4
2018-01-28T10:03:36.836Z,27.4
2018-01-28T10:04:36.694Z,27.4
2018-01-28T10:05:35.676Z,27.4
2018-01-28T10:06:35.727Z,27.4
2018-01-28T10:07:35.976Z,27.4
2018-01-28T10:08:35.786Z,27.3
2018-01-28T10:09:35.790Z,27.4
2018-01-28T10:10:37.101Z,27.4
2018-01-28T10:11:35.876Z,27.3
2018-01-28T10:12:37.221Z,27.4
2018-01-28T10:13:37.234Z,27.4
2018-01-28T10:14:35.980Z,27.4
2018-01-28T10:15:37.371Z,27.4
2018-01-28T10:16:36.134Z,27.4
2018-01-28T10:17:37.248Z,27.4
2018-01-28T10:18:36.425Z,27.4
2018-01-28T10:19:36.261Z,27.3
2018-01-28T10:20:36.335Z,27.3
2018-01-28T10:21:36.526Z,27.3
2018-01-28T10:22:36.583Z,27.3
2018-01-28T10:23:37.758Z,27.4
2018-01-28T10:24:36.461Z,27.4
2018-01-28T10:25:36.752Z,27.4
2018-01-28T10:26:36.634Z,27.3
2018-01-28T10:27:37.938Z,27.3
2018-01-28T10:28:37.767Z,27.3
2018-01-28T10:29:38.038Z,27.3
2018-01-28T10:30:36.975Z,27.3
2018-01-28T10:31:36.818Z,27.3
2018-01-28T10:32:36.838Z,27.3
2018-01-28T10:33:38.164Z,27.4
2018-01-28T10:34:36.894Z,27.3
2018-01-28T10:35:38.033Z,27.3
2018-01-28T10:36:37.248Z,27.3
2018-01-28T10:37:38.182Z,27.3
2018-01-28T10:38:37.203Z,27.3
2018-01-28T10:39:37.232Z,27.3
2018-01-28T10:40:38.565Z,27.3
2018-01-28T10:41:38.382Z,27.3
2018-01-28T10:42:37.526Z,27.3
2018-01-28T10:43:37.627Z,27.3
2018-01-28T10:44:38.803Z,27.3
2018-01-28T10:45:38.885Z,27.3
2018-01-28T10:46:38.981Z,27.3
2018-01-28T10:47:37.947Z,27.2
2018-01-28T10:48:39.042Z,27.2
2018-01-28T10:49:37.806Z,27.2
2018-01-28T10:50:39.202Z,27.3
2018-01-28T10:51:39.253Z,27.2
2018-01-28T10:52:39.341Z,27.2
2018-01-28T10:53:39.436Z,27.2
2018-01-28T10:54:39.435Z,27.2
2018-01-28T10:55:38.231Z,27.2
2018-01-28T10:56:39.590Z,27.2
2018-01-28T10:57:38.394Z,27.2
2018-01-28T10:58:39.724Z,27.2
2018-01-28T10:59:38.734Z,27.2
2018-01-28T11:00:38.558Z,27.1
2018-01-28T11:01:38.564Z,27.1
2018-01-28T11:02:38.692Z,27.1
2018-01-28T11:03:40.014Z,27.1
2018-01-28T11:04:38.841Z,27.1
2018-01-28T11:05:40.162Z,27
2018-01-28T11:06:38.943Z,27
2018-01-28T11:07:39.011Z,26.9
2018-01-28T11:08:40.112Z,26.8
2018-01-28T11:09:40.129Z,26.8
2018-01-28T11:10:39.132Z,26.8
2018-01-28T11:11:40.445Z,26.8
2018-01-28T11:12:40.489Z,26.8
2018-01-28T11:13:39.505Z,26.8
2018-01-28T11:14:40.640Z,26.8
2018-01-28T11:15:40.658Z,26.7
2018-01-28T11:16:40.752Z,26.7
2018-01-28T11:17:39.528Z,26.7
2018-01-28T11:18:40.841Z,26.7
2018-01-28T11:19:39.862Z,26.6
2018-01-28T11:20:41.004Z,26.6
2018-01-28T11:21:40.016Z,26.5
2018-01-28T11:22:40.893Z,26.5
2018-01-28T11:23:41.111Z,26.5
2018-01-28T11:24:39.918Z,26.5
2018-01-28T11:25:41.199Z,26.4
2018-01-28T11:26:40.241Z,26.4
2018-01-28T11:27:40.137Z,26.3
2018-01-28T11:28:40.084Z,26.3
2018-01-28T11:29:41.368Z,26.3
2018-01-28T11:30:41.244Z,26.2
2018-01-28T11:31:40.521Z,26.2
2018-01-28T11:32:40.514Z,26.2
2018-01-28T11:33:40.311Z,26.1
2018-01-28T11:34:40.276Z,26
2018-01-28T11:35:41.647Z,26
2018-01-28T11:36:40.473Z,26
2018-01-28T11:37:40.443Z,26
2018-01-28T11:38:41.860Z,26
2018-01-28T11:39:40.551Z,26
2018-01-28T11:40:40.620Z,26
2018-01-28T11:41:40.870Z,25.9
2018-01-28T11:42:40.935Z,25.9
2018-01-28T11:43:42.015Z,25.8
2018-01-28T11:44:42.071Z,25.8
2018-01-28T11:45:40.995Z,25.8
2018-01-28T11:46:41.839Z,25.9
2018-01-28T11:47:42.241Z,25.9
2018-01-28T11:48:40.921Z,25.9
2018-01-28T11:49:42.292Z,26
2018-01-28T11:50:42.096Z,26
2018-01-28T11:51:42.311Z,26
2018-01-28T11:52:41.048Z,26
2018-01-28T11:53:41.086Z,26.1
2018-01-28T11:54:42.416Z,26.1
2018-01-28T11:55:41.352Z,26.1
2018-01-28T11:56:42.545Z,26.1
2018-01-28T11:57:42.280Z,26.1
2018-01-28T11:58:41.276Z,26.1
2018-01-28T11:59:41.588Z,26.1
2018-01-28T12:00:41.574Z,26.1
2018-01-28T12:01:42.700Z,26.2
2018-01-28T12:02:41.506Z,26.2
2018-01-28T12:03:41.576Z,26.2
2018-01-28T12:04:42.660Z,26.2
2018-01-28T12:05:41.862Z,26.3
2018-01-28T12:06:42.938Z,26.3
2018-01-28T12:07:41.788Z,26.3
2018-01-28T12:08:41.750Z,26.3
2018-01-28T12:09:41.803Z,26.3
2018-01-28T12:10:41.855Z,26.3
2018-01-28T12:11:42.102Z,26.3
2018-01-28T12:12:41.941Z,26.3
2018-01-28T12:13:43.045Z,26.3
2018-01-28T12:14:43.108Z,26.3
2018-01-28T12:15:42.303Z,26.3
2018-01-28T12:16:42.297Z,26.4
2018-01-28T12:17:43.422Z,26.4
2018-01-28T12:18:42.148Z,26.3
2018-01-28T12:19:42.172Z,26.3
2018-01-28T12:20:42.255Z,26.3
2018-01-28T12:21:43.566Z,26.3
2018-01-28T12:22:43.638Z,26.3
2018-01-28T12:23:43.702Z,26.3
2018-01-28T12:24:42.600Z,26.3
2018-01-28T12:25:42.690Z,26.2
2018-01-28T12:26:42.717Z,26.2
2018-01-28T12:27:43.677Z,26.2
2018-01-28T12:28:42.654Z,26.2
2018-01-28T12:29:42.857Z,26.2
2018-01-28T12:30:43.740Z,26.2
2018-01-28T12:31:42.766Z,26.1
2018-01-28T12:32:44.128Z,26.1
2018-01-28T12:33:44.021Z,26.1
2018-01-28T12:34:44.224Z,26.2
2018-01-28T12:35:44.022Z,26.2
2018-01-28T12:36:44.278Z,26.2
2018-01-28T12:37:43.078Z,26.2
2018-01-28T12:38:43.109Z,26.2
2018-01-28T12:39:43.200Z,26.1
2018-01-28T12:40:44.508Z,26.2
2018-01-28T12:41:44.343Z,26.2
2018-01-28T12:42:44.672Z,26.1
2018-01-28T12:43:43.407Z,26.2
2018-01-28T12:44:44.769Z,26.2
2018-01-28T12:45:44.818Z,26.2
2018-01-28T12:46:43.632Z,26.2
2018-01-28T12:47:44.875Z,26.2
2018-01-28T12:48:43.614Z,26.3
2018-01-28T12:49:44.935Z,26.3
2018-01-28T12:50:43.686Z,26.3
2018-01-28T12:51:43.720Z,26.3
2018-01-28T12:52:43.706Z,26.3
2018-01-28T12:53:43.910Z,26.3
2018-01-28T12:54:45.051Z,26.3
2018-01-28T12:55:44.033Z,26.2
2018-01-28T12:56:43.916Z,26.2
2018-01-28T12:57:43.967Z,26.2
2018-01-28T12:58:43.981Z,26.2
2018-01-28T12:59:44.013Z,26.2
2018-01-28T13:00:44.120Z,26.2
2018-01-28T13:01:44.318Z,26.1
2018-01-28T13:02:45.496Z,26.1
2018-01-28T13:03:44.299Z,26.1
2018-01-28T13:04:44.364Z,26.1
2018-01-28T13:05:45.678Z,26.1
2018-01-28T13:06:44.534Z,26.1
2018-01-28T13:07:44.533Z,26.1
2018-01-28T13:08:44.614Z,26.1
2018-01-28T13:09:45.935Z,26.1
2018-01-28T13:10:44.852Z,26.1
2018-01-28T13:11:45.977Z,26.1
2018-01-28T13:12:44.798Z,26.1
2018-01-28T13:13:44.869Z,26.1
2018-01-28T13:14:45.093Z,26.1
2018-01-28T13:15:44.951Z,26.1
2018-01-28T13:16:46.047Z,26.2
2018-01-28T13:17:46.070Z,26.2
2018-01-28T13:18:45.061Z,26.2
2018-01-28T13:19:45.310Z,26.2